Time;durP1;ratioP1;P1;durP2;ratioP2;P2;SDS_P1;SDS_P2;PMS_P1;PMS_P2;Temp;Humidity;BMP_temperature;BMP_pressure;BME280_temperature;BME280_humidity;BME280_pressure;Samples;Min_cycle;Max_cycle;Signal;HPM_P1;HPM_P2
2022/08/14 00:02:08;;;;;;;13.60;12.30;;;;;;;;;;5082203;28;24410;-46
2022/08/14 00:04:34;;;;;;;12.65;11.55;;;;;;;;;;5079563;28;24453;-46
2022/08/14 00:07:00;;;;;;;13.77;12.57;;;;;;;;;;5077219;28;24480;-46
2022/08/14 00:09:25;;;;;;;13.52;12.43;;;;;;;;;;5073677;28;24461;-46
2022/08/14 00:11:50;;;;;;;12.50;11.30;;;;;;;;;;5082472;28;24446;-46
2022/08/14 00:14:16;;;;;;;13.60;12.30;;;;;;;;;;5082186;28;24483;-46
2022/08/14 00:16:41;;;;;;;13.45;12.25;;;;;;;;;;5073831;28;24656;-46
2022/08/14 00:19:06;;;;;;;13.20;12.10;;;;;;;;;;5078089;28;25130;-46
2022/08/14 00:21:31;;;;;;;12.90;11.77;;;;;;;;;;5079896;28;24414;-46
2022/08/14 00:23:57;;;;;;;13.07;11.90;;;;;;;;;;5078066;28;24990;-46
2022/08/14 00:26:22;;;;;;;13.50;12.40;;;;;;;;;;5073502;28;24422;-46
2022/08/14 00:28:48;;;;;;;12.83;11.80;;;;;;;;;;5068893;28;24537;-47
2022/08/14 00:31:13;;;;;;;13.23;12.23;;;;;;;;;;5074678;28;24622;-47
2022/08/14 00:33:39;;;;;;;13.80;12.70;;;;;;;;;;5070569;28;24827;-46
2022/08/14 00:36:04;;;;;;;13.00;12.00;;;;;;;;;;5080710;28;24765;-47
2022/08/14 00:38:29;;;;;;;12.37;11.30;;;;;;;;;;5080244;28;24506;-46
2022/08/14 00:40:55;;;;;;;12.93;11.83;;;;;;;;;;5079045;28;25057;-46
2022/08/14 00:43:20;;;;;;;13.02;11.82;;;;;;;;;;5069117;28;24418;-46
2022/08/14 00:45:45;;;;;;;13.50;12.27;;;;;;;;;;5072403;28;24776;-47
2022/08/14 00:48:11;;;;;;;12.70;11.70;;;;;;;;;;5069867;28;25065;-46
2022/08/14 00:50:36;;;;;;;12.75;11.55;;;;;;;;;;5078412;28;24429;-46
2022/08/14 00:53:02;;;;;;;12.70;11.60;;;;;;;;;;5074024;28;24425;-46
2022/08/14 00:55:28;;;;;;;12.83;11.73;;;;;;;;;;5070741;28;24535;-47
2022/08/14 01:00:38;;;;;;;11.60;10.60;;;;;;;;;;5072462;28;24454;-45
2022/08/14 01:03:04;;;;;;;12.57;11.47;;;;;;;;;;5071131;28;24850;-45
2022/08/14 01:05:32;;;;;;;11.95;10.95;;;;;;;;;;5072087;28;24522;-48
2022/08/14 01:07:58;;;;;;;12.68;11.57;;;;;;;;;;5077298;28;25044;-48
2022/08/14 01:10:50;;;;;;;11.60;10.50;;;;;;;;;;5071872;28;24407;-47
2022/08/14 01:13:18;;;;;;;11.67;10.67;;;;;;;;;;5078000;28;24430;-46
2022/08/14 01:15:44;;;;;;;12.63;11.52;;;;;;;;;;5069854;28;24431;-45
2022/08/14 01:21:14;;;;;;;11.88;10.77;;;;;;;;;;5077953;28;25012;-45
2022/08/14 01:23:41;;;;;;;11.10;10.20;;;;;;;;;;5069362;28;24431;-45
2022/08/14 01:26:07;;;;;;;11.10;10.20;;;;;;;;;;5068179;28;25019;-45
2022/08/14 01:28:36;;;;;;;11.00;10.10;;;;;;;;;;5077446;28;24515;-45
2022/08/14 01:31:07;;;;;;;11.18;10.18;;;;;;;;;;5068416;28;24698;-46
2022/08/14 01:33:33;;;;;;;11.40;10.40;;;;;;;;;;5069189;28;24844;-45
2022/08/14 01:36:01;;;;;;;11.40;10.40;;;;;;;;;;5074323;28;24481;-44
2022/08/14 01:38:33;;;;;;;10.63;9.73;;;;;;;;;;5075531;28;24514;-45
2022/08/14 01:41:00;;;;;;;10.95;9.95;;;;;;;;;;5078387;28;24960;-46
2022/08/14 01:43:29;;;;;;;11.38;10.27;;;;;;;;;;5075393;28;24418;-45
2022/08/14 01:45:56;;;;;;;12.35;11.25;;;;;;;;;;5073625;28;24425;-46
2022/08/14 01:48:22;;;;;;;11.50;10.40;;;;;;;;;;5081703;28;24551;-45
2022/08/14 01:50:47;;;;;;;12.30;11.20;;;;;;;;;;5083446;28;25068;-46
2022/08/14 01:53:12;;;;;;;11.80;10.70;;;;;;;;;;5076067;28;24533;-45
2022/08/14 01:55:38;;;;;;;10.55;9.65;;;;;;;;;;5066551;28;24538;-45
2022/08/14 01:58:03;;;;;;;11.43;10.43;;;;;;;;;;5075119;28;24982;-45
2022/08/14 02:00:28;;;;;;;11.30;10.30;;;;;;;;;;5073395;28;24427;-45
2022/08/14 02:02:54;;;;;;;12.10;11.00;;;;;;;;;;5067518;28;24446;-45
2022/08/14 02:05:20;;;;;;;11.88;10.77;;;;;;;;;;5073039;28;24502;-46
2022/08/14 02:07:45;;;;;;;11.20;10.30;;;;;;;;;;5066992;28;25027;-45
2022/08/14 02:10:12;;;;;;;11.70;10.70;;;;;;;;;;5082445;28;24517;-46
2022/08/14 02:12:37;;;;;;;12.20;11.00;;;;;;;;;;5069608;28;24476;-44
2022/08/14 02:15:03;;;;;;;12.10;11.00;;;;;;;;;;5066850;28;24534;-45
2022/08/14 02:17:31;;;;;;;12.00;10.90;;;;;;;;;;5081115;28;24505;-45
2022/08/14 02:19:56;;;;;;;11.50;10.50;;;;;;;;;;5077555;28;24427;-45
2022/08/14 02:22:21;;;;;;;11.73;10.73;;;;;;;;;;5073227;28;24526;-44
2022/08/14 02:24:47;;;;;;;11.60;10.60;;;;;;;;;;5071354;28;24417;-49
2022/08/14 02:27:12;;;;;;;12.10;10.90;;;;;;;;;;5073108;28;24423;-46
2022/08/14 02:29:37;;;;;;;11.90;10.90;;;;;;;;;;5067323;28;24454;-44
2022/08/14 02:32:03;;;;;;;11.60;10.60;;;;;;;;;;5076209;28;24418;-48
2022/08/14 02:34:31;;;;;;;11.38;10.38;;;;;;;;;;5080192;28;24438;-46
2022/08/14 02:37:05;;;;;;;12.13;11.07;;;;;;;;;;5075720;28;24793;-46
2022/08/14 02:39:31;;;;;;;13.18;11.98;;;;;;;;;;5067785;28;24427;-46
2022/08/14 02:41:57;;;;;;;12.65;11.55;;;;;;;;;;5072762;28;24828;-47
2022/08/14 02:44:22;;;;;;;12.60;11.50;;;;;;;;;;5072209;28;24494;-45
2022/08/14 02:46:48;;;;;;;11.70;10.70;;;;;;;;;;5076345;28;24472;-45
2022/08/14 02:49:13;;;;;;;12.57;11.48;;;;;;;;;;5072653;28;24426;-46
2022/08/14 02:51:38;;;;;;;12.90;11.80;;;;;;;;;;5074915;28;24431;-45
2022/08/14 02:54:06;;;;;;;12.20;11.10;;;;;;;;;;5081194;28;24416;-44
2022/08/14 02:56:31;;;;;;;12.68;11.38;;;;;;;;;;5075819;28;24908;-45
2022/08/14 02:58:56;;;;;;;12.43;11.33;;;;;;;;;;5078163;28;24427;-45
2022/08/14 03:01:22;;;;;;;12.00;10.90;;;;;;;;;;5075840;28;24480;-46
2022/08/14 03:03:48;;;;;;;12.93;11.82;;;;;;;;;;5070467;28;24426;-45
2022/08/14 03:06:14;;;;;;;12.48;11.38;;;;;;;;;;5077439;28;24957;-45
2022/08/14 03:08:40;;;;;;;12.15;11.15;;;;;;;;;;5072930;28;24476;-45
2022/08/14 03:11:08;;;;;;;12.60;11.50;;;;;;;;;;5067234;28;25040;-45
2022/08/14 03:13:34;;;;;;;13.23;12.02;;;;;;;;;;5074916;28;24560;-45
2022/08/14 03:16:00;;;;;;;12.20;11.10;;;;;;;;;;5065631;28;24793;-46
2022/08/14 03:18:25;;;;;;;12.20;11.00;;;;;;;;;;5070927;28;24442;-46
2022/08/14 03:20:51;;;;;;;12.30;11.20;;;;;;;;;;5074889;28;24423;-46
2022/08/14 03:23:17;;;;;;;11.87;10.87;;;;;;;;;;5068109;28;24960;-46
2022/08/14 03:25:43;;;;;;;12.63;11.52;;;;;;;;;;5066708;28;24441;-46
2022/08/14 03:28:08;;;;;;;12.37;11.27;;;;;;;;;;5069466;28;25007;-47
2022/08/14 03:30:34;;;;;;;11.85;10.85;;;;;;;;;;5065766;28;24518;-45
2022/08/14 03:32:59;;;;;;;13.40;12.10;;;;;;;;;;5068846;28;24590;-45
2022/08/14 03:35:25;;;;;;;12.70;11.50;;;;;;;;;;5074217;28;25028;-45
2022/08/14 03:37:53;;;;;;;12.52;11.45;;;;;;;;;;5071863;28;24431;-46
2022/08/14 03:40:19;;;;;;;12.60;11.50;;;;;;;;;;5069824;28;24538;-45
2022/08/14 03:42:44;;;;;;;12.65;11.55;;;;;;;;;;5068061;28;24525;-45
2022/08/14 03:45:09;;;;;;;11.70;10.60;;;;;;;;;;5077910;28;25003;-45
2022/08/14 03:47:39;;;;;;;12.60;11.50;;;;;;;;;;5080508;28;25116;-46
2022/08/14 03:50:06;;;;;;;12.95;11.80;;;;;;;;;;5070628;28;25061;-45
2022/08/14 03:52:32;;;;;;;12.70;11.40;;;;;;;;;;5076234;28;24530;-46
2022/08/14 03:54:58;;;;;;;11.50;10.50;;;;;;;;;;5074929;28;25233;-46
2022/08/14 03:57:23;;;;;;;11.60;10.60;;;;;;;;;;5062454;28;24422;-45
2022/08/14 03:59:49;;;;;;;12.20;11.10;;;;;;;;;;5073349;28;24437;-46
2022/08/14 04:02:14;;;;;;;11.90;10.90;;;;;;;;;;5067894;28;24469;-46
2022/08/14 04:04:39;;;;;;;12.47;11.37;;;;;;;;;;5069447;28;24437;-46
2022/08/14 04:07:04;;;;;;;12.20;11.20;;;;;;;;;;5070702;28;24764;-47
2022/08/14 04:09:29;;;;;;;12.17;11.07;;;;;;;;;;5078278;28;25059;-46
2022/08/14 04:11:55;;;;;;;12.60;11.48;;;;;;;;;;5072393;28;24410;-46
2022/08/14 04:14:21;;;;;;;12.82;11.70;;;;;;;;;;5071171;28;24534;-46
2022/08/14 04:16:46;;;;;;;12.30;11.10;;;;;;;;;;5074068;28;24460;-46
2022/08/14 04:19:16;;;;;;;12.43;11.23;;;;;;;;;;5075462;28;24442;-46
2022/08/14 04:21:41;;;;;;;13.27;12.07;;;;;;;;;;5075323;28;25205;-46
2022/08/14 04:24:06;;;;;;;12.85;11.75;;;;;;;;;;5077193;28;24426;-46
2022/08/14 04:26:31;;;;;;;12.80;11.70;;;;;;;;;;5076164;28;24993;-46
2022/08/14 04:28:57;;;;;;;12.03;11.03;;;;;;;;;;5081899;28;24438;-46
2022/08/14 04:31:22;;;;;;;12.17;11.07;;;;;;;;;;5070521;28;25042;-46
2022/08/14 04:33:48;;;;;;;12.52;11.43;;;;;;;;;;5075856;28;24414;-46
2022/08/14 04:36:13;;;;;;;11.90;10.90;;;;;;;;;;5071099;28;24438;-46
2022/08/14 04:44:06;;;;;;;11.07;10.18;;;;;;;;;;5070264;28;24809;-46
2022/08/14 04:46:33;;;;;;;11.27;10.27;;;;;;;;;;5076193;28;24422;-46
2022/08/14 04:48:58;;;;;;;10.63;9.73;;;;;;;;;;5074194;28;24496;-46
2022/08/14 04:51:25;;;;;;;11.30;10.40;;;;;;;;;;5076149;28;24476;-46
2022/08/14 04:53:51;;;;;;;10.95;10.05;;;;;;;;;;5074526;28;24433;-46
2022/08/14 04:56:21;;;;;;;11.57;10.68;;;;;;;;;;5070545;28;24437;-44
2022/08/14 04:58:46;;;;;;;11.10;10.10;;;;;;;;;;5073658;28;25153;-45
2022/08/14 05:01:13;;;;;;;11.63;10.63;;;;;;;;;;5074744;28;24557;-45
2022/08/14 05:03:39;;;;;;;10.15;9.35;;;;;;;;;;5071042;28;24545;-45
2022/08/14 05:06:06;;;;;;;11.20;10.20;;;;;;;;;;5072730;28;24892;-45
2022/08/14 05:08:32;;;;;;;10.40;9.60;;;;;;;;;;5079951;28;24832;-45
2022/08/14 05:10:58;;;;;;;10.63;9.73;;;;;;;;;;5068864;28;24434;-46
2022/08/14 05:13:25;;;;;;;10.93;10.03;;;;;;;;;;5072219;28;24525;-45
2022/08/14 05:15:54;;;;;;;11.82;10.82;;;;;;;;;;5077473;28;24422;-45
2022/08/14 05:18:20;;;;;;;12.43;11.43;;;;;;;;;;5071239;28;24427;-47
2022/08/14 05:20:47;;;;;;;11.82;10.73;;;;;;;;;;5075951;28;24462;-46
2022/08/14 05:23:14;;;;;;;12.47;11.47;;;;;;;;;;5077838;28;24426;-46
2022/08/14 05:25:40;;;;;;;13.00;11.90;;;;;;;;;;5079329;28;24994;-46
2022/08/14 05:28:18;;;;;;;13.57;12.48;;;;;;;;;;5076578;28;24427;-46
2022/08/14 05:30:47;;;;;;;11.10;10.20;;;;;;;;;;5068990;28;24415;-46
2022/08/14 05:33:13;;;;;;;11.70;10.80;;;;;;;;;;5075776;28;24422;-46
2022/08/14 05:35:38;;;;;;;11.20;10.30;;;;;;;;;;5072498;28;24437;-45
2022/08/14 05:38:07;;;;;;;10.53;9.73;;;;;;;;;;5067441;28;24439;-46
2022/08/14 05:40:33;;;;;;;11.77;10.88;;;;;;;;;;5075298;28;24501;-46
2022/08/14 05:42:58;;;;;;;11.80;10.90;;;;;;;;;;5069427;28;24815;-46
2022/08/14 05:45:23;;;;;;;11.27;10.38;;;;;;;;;;5070430;28;24560;-46
2022/08/14 05:47:49;;;;;;;11.85;10.85;;;;;;;;;;5071222;28;24449;-46
2022/08/14 05:50:14;;;;;;;11.85;10.95;;;;;;;;;;5077091;28;24426;-46
2022/08/14 05:52:39;;;;;;;11.47;10.67;;;;;;;;;;5070339;28;25363;-46
2022/08/14 05:55:06;;;;;;;11.52;10.63;;;;;;;;;;5074423;28;24455;-46
2022/08/14 05:57:31;;;;;;;13.80;12.70;;;;;;;;;;5067138;28;24965;-46
2022/08/14 05:59:56;;;;;;;14.53;13.37;;;;;;;;;;5073164;28;24429;-46
2022/08/14 06:02:21;;;;;;;11.90;10.90;;;;;;;;;;5080835;28;24414;-46
2022/08/14 06:04:47;;;;;;;10.95;10.05;;;;;;;;;;5073383;28;24493;-45
2022/08/14 06:07:13;;;;;;;11.18;10.35;;;;;;;;;;5071480;28;24547;-45
2022/08/14 06:09:38;;;;;;;10.90;10.10;;;;;;;;;;5073897;28;24569;-46
2022/08/14 06:12:03;;;;;;;12.13;11.13;;;;;;;;;;5069085;28;24421;-45
2022/08/14 06:14:28;;;;;;;11.37;10.47;;;;;;;;;;5074475;28;24433;-45
2022/08/14 06:16:53;;;;;;;11.47;10.57;;;;;;;;;;5070164;28;24414;-45
2022/08/14 06:19:19;;;;;;;11.63;10.73;;;;;;;;;;5081357;28;24419;-45
2022/08/14 06:21:44;;;;;;;12.73;11.73;;;;;;;;;;5071686;28;24430;-46
2022/08/14 06:24:09;;;;;;;11.40;10.40;;;;;;;;;;5075525;28;24423;-47
2022/08/14 06:26:34;;;;;;;11.30;10.40;;;;;;;;;;5071556;28;24445;-46
2022/08/14 06:28:59;;;;;;;11.47;10.57;;;;;;;;;;5074961;28;24516;-46
2022/08/14 06:31:24;;;;;;;12.43;11.43;;;;;;;;;;5077684;28;24540;-46
2022/08/14 06:33:50;;;;;;;11.80;10.90;;;;;;;;;;5064697;28;24808;-46
2022/08/14 06:36:16;;;;;;;11.33;10.53;;;;;;;;;;5064892;28;24509;-46
2022/08/14 06:38:41;;;;;;;11.73;10.82;;;;;;;;;;5070675;28;24414;-46
2022/08/14 06:41:06;;;;;;;11.18;10.27;;;;;;;;;;5074709;28;24522;-47
2022/08/14 06:43:32;;;;;;;11.27;10.37;;;;;;;;;;5081679;28;24428;-46
2022/08/14 06:45:57;;;;;;;11.10;10.30;;;;;;;;;;5074835;28;24423;-46
2022/08/14 06:48:23;;;;;;;11.27;10.47;;;;;;;;;;5074689;28;24909;-46
2022/08/14 06:50:48;;;;;;;11.23;10.33;;;;;;;;;;5071983;28;24437;-46
2022/08/14 06:53:15;;;;;;;11.27;10.48;;;;;;;;;;5079654;28;24456;-46
2022/08/14 06:55:41;;;;;;;13.70;12.60;;;;;;;;;;5086866;28;24491;-47
2022/08/14 06:58:09;;;;;;;13.38;12.18;;;;;;;;;;5087141;28;24802;-46
2022/08/14 07:00:34;;;;;;;15.37;14.17;;;;;;;;;;5087253;28;25004;-46
2022/08/14 07:05:47;;;;;;;11.45;10.55;;;;;;;;;;5086826;28;24453;-46
2022/08/14 07:08:19;;;;;;;11.35;10.45;;;;;;;;;;5086675;28;24757;-47
2022/08/14 07:10:48;;;;;;;13.07;11.98;;;;;;;;;;5086830;28;24398;-47
2022/08/14 07:13:14;;;;;;;13.18;12.07;;;;;;;;;;5087211;28;24401;-47
2022/08/14 07:15:40;;;;;;;13.73;12.63;;;;;;;;;;5086321;28;24796;-46
2022/08/14 07:18:06;;;;;;;12.30;11.20;;;;;;;;;;5087324;28;24867;-48
2022/08/14 07:20:31;;;;;;;11.40;10.50;;;;;;;;;;5087125;28;25234;-47
2022/08/14 07:22:59;;;;;;;10.70;9.70;;;;;;;;;;5086627;28;25170;-46
2022/08/14 07:25:24;;;;;;;12.53;11.33;;;;;;;;;;5086887;28;24519;-47
2022/08/14 07:27:49;;;;;;;14.70;13.50;;;;;;;;;;5086723;28;24511;-47
2022/08/14 07:30:15;;;;;;;12.20;11.20;;;;;;;;;;5086795;28;24758;-48
2022/08/14 07:32:40;;;;;;;12.97;11.87;;;;;;;;;;5084704;28;24386;-47
2022/08/14 07:35:06;;;;;;;13.07;12.00;;;;;;;;;;5085699;28;24409;-48
2022/08/14 07:37:31;;;;;;;12.70;11.70;;;;;;;;;;5086855;28;24390;-46
2022/08/14 07:39:56;;;;;;;12.40;11.40;;;;;;;;;;5086630;28;24421;-46
2022/08/14 07:42:22;;;;;;;12.50;11.60;;;;;;;;;;5090572;28;24829;-46
2022/08/14 07:44:47;;;;;;;12.50;11.50;;;;;;;;;;5091032;28;24843;-46
2022/08/14 07:47:14;;;;;;;13.30;12.10;;;;;;;;;;5091107;28;24413;-47
2022/08/14 07:49:40;;;;;;;11.57;10.68;;;;;;;;;;5090384;28;24454;-47
2022/08/14 07:52:05;;;;;;;14.82;13.52;;;;;;;;;;5090558;28;24394;-47
2022/08/14 07:54:30;;;;;;;13.10;12.10;;;;;;;;;;5090850;28;24389;-46
2022/08/14 07:56:57;;;;;;;14.17;12.97;;;;;;;;;;5090760;28;24386;-47
2022/08/14 07:59:23;;;;;;;13.27;12.18;;;;;;;;;;5090212;28;24390;-46
2022/08/14 08:01:48;;;;;;;12.90;11.90;;;;;;;;;;5090389;28;24481;-46
2022/08/14 08:04:14;;;;;;;14.07;12.93;;;;;;;;;;5090590;28;24469;-46
2022/08/14 08:06:39;;;;;;;13.30;12.10;;;;;;;;;;5089966;28;24477;-46
2022/08/14 08:09:05;;;;;;;12.10;11.20;;;;;;;;;;5090739;28;24887;-50
2022/08/14 08:11:31;;;;;;;12.15;11.25;;;;;;;;;;5090159;28;24379;-46
2022/08/14 08:13:58;;;;;;;12.02;11.13;;;;;;;;;;5090447;28;24402;-47
2022/08/14 08:16:23;;;;;;;13.60;12.50;;;;;;;;;;5090207;28;24417;-47
2022/08/14 08:18:49;;;;;;;11.93;10.93;;;;;;;;;;5090218;28;24599;-46
2022/08/14 08:21:14;;;;;;;12.25;11.25;;;;;;;;;;5089894;28;24421;-46
2022/08/14 08:23:39;;;;;;;11.98;10.98;;;;;;;;;;5089809;28;25242;-47
2022/08/14 08:26:05;;;;;;;12.52;11.52;;;;;;;;;;5090235;28;24937;-45
2022/08/14 08:28:30;;;;;;;13.40;12.30;;;;;;;;;;5090093;28;24386;-47
2022/08/14 08:31:02;;;;;;;11.70;10.80;;;;;;;;;;5089818;28;24870;-46
2022/08/14 08:33:29;;;;;;;12.73;11.68;;;;;;;;;;5089954;28;24973;-45
2022/08/14 08:35:58;;;;;;;12.32;11.32;;;;;;;;;;5089757;28;25291;-46
2022/08/14 08:38:24;;;;;;;11.80;10.90;;;;;;;;;;5090097;28;24452;-46
2022/08/14 08:40:53;;;;;;;12.40;11.40;;;;;;;;;;5089642;28;24823;-46
2022/08/14 08:43:22;;;;;;;12.45;11.45;;;;;;;;;;5089592;28;24382;-46
2022/08/14 08:45:59;;;;;;;11.07;10.30;;;;;;;;;;5089450;28;24436;-46
2022/08/14 08:48:29;;;;;;;11.00;10.20;;;;;;;;;;5089317;28;24410;-46
2022/08/14 08:50:57;;;;;;;10.90;10.10;;;;;;;;;;5088878;28;22334;-46
2022/08/14 08:53:22;;;;;;;13.07;12.10;;;;;;;;;;5088166;28;24390;-47
2022/08/14 08:55:48;;;;;;;11.35;10.55;;;;;;;;;;5089284;28;24403;-46
2022/08/14 08:58:17;;;;;;;12.47;11.43;;;;;;;;;;5089926;28;24391;-46
2022/08/14 09:00:50;;;;;;;10.90;10.10;;;;;;;;;;5088806;28;24410;-46
2022/08/14 09:03:19;;;;;;;10.40;9.70;;;;;;;;;;5089029;28;24789;-46
2022/08/14 09:05:54;;;;;;;10.90;10.13;;;;;;;;;;5089343;28;24393;-46
2022/08/14 09:08:21;;;;;;;11.48;10.57;;;;;;;;;;5088810;28;24390;-45
2022/08/14 09:10:46;;;;;;;10.52;9.82;;;;;;;;;;5089141;28;25020;-46
2022/08/14 09:13:12;;;;;;;11.20;10.40;;;;;;;;;;5088783;28;24496;-47
2022/08/14 09:15:38;;;;;;;10.63;9.90;;;;;;;;;;5088892;28;24421;-46
2022/08/14 09:18:04;;;;;;;11.70;10.80;;;;;;;;;;5088957;28;24401;-47
2022/08/14 09:20:30;;;;;;;10.60;9.70;;;;;;;;;;5088895;28;24982;-47
2022/08/14 09:22:56;;;;;;;12.40;11.30;;;;;;;;;;5088584;28;24391;-47
2022/08/14 09:25:21;;;;;;;11.27;10.38;;;;;;;;;;5088883;28;24437;-47
2022/08/14 09:27:47;;;;;;;11.70;10.80;;;;;;;;;;5088667;28;24426;-47
2022/08/14 09:30:12;;;;;;;11.37;10.47;;;;;;;;;;5088683;28;24929;-47
2022/08/14 09:32:42;;;;;;;10.73;9.93;;;;;;;;;;5088334;28;24553;-47
2022/08/14 09:35:14;;;;;;;10.40;9.70;;;;;;;;;;5088896;28;24428;-48
2022/08/14 09:37:47;;;;;;;10.10;9.40;;;;;;;;;;5088479;28;24662;-50
2022/08/14 09:40:18;;;;;;;10.07;9.27;;;;;;;;;;5088705;28;24414;-47
2022/08/14 09:42:55;;;;;;;11.20;10.40;;;;;;;;;;5087978;28;24394;-48
2022/08/14 09:45:27;;;;;;;9.50;8.80;;;;;;;;;;5088446;28;24397;-47
2022/08/14 09:47:53;;;;;;;10.60;9.80;;;;;;;;;;5088359;28;24780;-48
2022/08/14 09:50:21;;;;;;;10.98;10.07;;;;;;;;;;5088713;28;25156;-47
2022/08/14 09:53:01;;;;;;;11.20;10.30;;;;;;;;;;5087991;28;24938;-46
2022/08/14 09:55:26;;;;;;;10.40;9.70;;;;;;;;;;5088417;28;24395;-45
2022/08/14 09:58:03;;;;;;;10.40;9.60;;;;;;;;;;5088198;28;24464;-46
2022/08/14 10:00:43;;;;;;;9.93;9.13;;;;;;;;;;5088084;28;24418;-47
2022/08/14 10:03:08;;;;;;;9.80;9.10;;;;;;;;;;5067757;28;24410;-48
2022/08/14 10:05:34;;;;;;;9.83;9.00;;;;;;;;;;5067844;28;24390;-47
2022/08/14 10:08:00;;;;;;;8.60;8.00;;;;;;;;;;5067770;28;24418;-46
2022/08/14 10:10:27;;;;;;;9.30;8.60;;;;;;;;;;5067670;28;24814;-46
2022/08/14 10:12:52;;;;;;;8.98;8.20;;;;;;;;;;5067553;28;24403;-47
2022/08/14 10:15:18;;;;;;;8.00;7.40;;;;;;;;;;5067861;28;24980;-47
2022/08/14 10:17:45;;;;;;;8.27;7.47;;;;;;;;;;5067495;28;24466;-47
2022/08/14 10:20:12;;;;;;;8.05;7.55;;;;;;;;;;5067480;28;24429;-47
2022/08/14 10:22:37;;;;;;;8.75;8.15;;;;;;;;;;5067462;28;24472;-47
2022/08/14 10:25:09;;;;;;;9.17;8.37;;;;;;;;;;5067222;28;24845;-47
2022/08/14 10:27:34;;;;;;;8.70;8.10;;;;;;;;;;5067496;28;24957;-48
2022/08/14 10:29:59;;;;;;;8.40;7.80;;;;;;;;;;5067063;28;24434;-47
2022/08/14 10:32:25;;;;;;;8.37;7.77;;;;;;;;;;5067066;28;24921;-47
2022/08/14 10:34:50;;;;;;;8.25;7.65;;;;;;;;;;5067200;28;24483;-46
2022/08/14 10:37:16;;;;;;;8.37;7.67;;;;;;;;;;5067397;28;25015;-46
2022/08/14 10:39:43;;;;;;;9.27;8.30;;;;;;;;;;5067283;28;24781;-45
2022/08/14 10:42:10;;;;;;;9.05;8.43;;;;;;;;;;5067291;28;24494;-47
2022/08/14 10:44:37;;;;;;;8.70;8.00;;;;;;;;;;5067191;28;24411;-47
2022/08/14 10:47:06;;;;;;;8.90;8.20;;;;;;;;;;5066717;28;24480;-46
2022/08/14 10:49:33;;;;;;;8.73;8.02;;;;;;;;;;5067559;28;24974;-47
2022/08/14 10:52:05;;;;;;;8.90;8.20;;;;;;;;;;5067336;28;24446;-47
2022/08/14 10:54:31;;;;;;;8.50;7.90;;;;;;;;;;5067343;28;24741;-47
2022/08/14 10:56:57;;;;;;;8.10;7.40;;;;;;;;;;5066922;28;24398;-48
2022/08/14 10:59:22;;;;;;;8.93;8.25;;;;;;;;;;5066961;28;24675;-46
2022/08/14 11:01:48;;;;;;;9.00;8.10;;;;;;;;;;5076832;28;24418;-46
2022/08/14 11:04:19;;;;;;;8.70;8.00;;;;;;;;;;5087437;28;24390;-48
2022/08/14 11:06:51;;;;;;;8.10;7.50;;;;;;;;;;5086808;28;24951;-47
2022/08/14 11:09:17;;;;;;;9.20;8.60;;;;;;;;;;5087072;28;24413;-47
2022/08/14 11:11:42;;;;;;;9.20;8.50;;;;;;;;;;5087005;28;24737;-47
2022/08/14 11:14:07;;;;;;;9.10;8.40;;;;;;;;;;5086593;28;24402;-46
2022/08/14 11:16:34;;;;;;;8.27;7.67;;;;;;;;;;5086548;28;24416;-48
2022/08/14 11:19:01;;;;;;;8.30;7.70;;;;;;;;;;5086943;28;24954;-47
2022/08/14 11:21:28;;;;;;;8.00;7.40;;;;;;;;;;5086680;28;24780;-48
2022/08/14 11:23:54;;;;;;;8.45;7.75;;;;;;;;;;5086858;28;24914;-50
2022/08/14 11:26:21;;;;;;;8.38;7.68;;;;;;;;;;5087129;28;24566;-46
2022/08/14 11:28:48;;;;;;;8.30;7.60;;;;;;;;;;5086876;28;24459;-45
2022/08/14 11:31:13;;;;;;;8.35;7.65;;;;;;;;;;5086992;28;24480;-47
2022/08/14 11:33:39;;;;;;;7.73;7.20;;;;;;;;;;5086523;28;24750;-47
2022/08/14 11:36:05;;;;;;;7.90;7.30;;;;;;;;;;5087169;28;24393;-47
2022/08/14 11:38:41;;;;;;;7.68;7.18;;;;;;;;;;5086789;28;24422;-47
2022/08/14 11:41:08;;;;;;;8.40;7.80;;;;;;;;;;5086673;28;24835;-48
2022/08/14 11:43:43;;;;;;;8.48;7.82;;;;;;;;;;5086203;28;25239;-47
2022/08/14 11:46:12;;;;;;;8.57;7.90;;;;;;;;;;5086535;28;24401;-48
2022/08/14 11:48:47;;;;;;;8.70;8.10;;;;;;;;;;5086371;28;24411;-46
2022/08/14 11:51:16;;;;;;;8.23;7.53;;;;;;;;;;5086740;28;24821;-47
2022/08/14 11:53:42;;;;;;;8.07;7.38;;;;;;;;;;5086157;28;24455;-48
2022/08/14 11:56:07;;;;;;;7.83;7.23;;;;;;;;;;5086589;28;24463;-47
2022/08/14 11:58:34;;;;;;;8.10;7.30;;;;;;;;;;5086908;28;24412;-47
2022/08/14 12:01:02;;;;;;;8.55;7.90;;;;;;;;;;5086138;28;24503;-47
2022/08/14 12:03:48;;;;;;;8.27;7.60;;;;;;;;;;5086231;28;24440;-46
2022/08/14 12:06:18;;;;;;;8.80;8.00;;;;;;;;;;5086641;28;24437;-47
2022/08/14 12:08:45;;;;;;;8.20;7.60;;;;;;;;;;5086651;28;24437;-47
2022/08/14 12:11:12;;;;;;;8.10;7.50;;;;;;;;;;5086429;28;24486;-45
2022/08/14 12:13:38;;;;;;;7.90;7.40;;;;;;;;;;5086169;28;24811;-46
2022/08/14 12:16:06;;;;;;;7.95;7.30;;;;;;;;;;5086463;28;24909;-46
2022/08/14 12:18:42;;;;;;;7.20;6.70;;;;;;;;;;5086518;28;24498;-46
2022/08/14 12:21:18;;;;;;;7.40;6.90;;;;;;;;;;5086518;28;24445;-48
2022/08/14 12:23:44;;;;;;;7.80;7.30;;;;;;;;;;5084393;28;24390;-47
2022/08/14 12:26:15;;;;;;;8.98;8.38;;;;;;;;;;5086497;28;24440;-47
2022/08/14 12:28:40;;;;;;;9.30;8.70;;;;;;;;;;5088731;28;24410;-46
2022/08/14 12:31:18;;;;;;;8.33;7.73;;;;;;;;;;5089877;28;24382;-45
2022/08/14 12:33:54;;;;;;;8.05;7.55;;;;;;;;;;5089515;28;24397;-47
2022/08/14 12:36:20;;;;;;;8.10;7.60;;;;;;;;;;5090055;28;24467;-46
2022/08/14 12:38:45;;;;;;;8.95;8.35;;;;;;;;;;5089773;28;24390;-46
2022/08/14 12:41:15;;;;;;;9.00;8.30;;;;;;;;;;5089876;28;24510;-46
2022/08/14 12:43:45;;;;;;;8.38;7.78;;;;;;;;;;5089105;28;24409;-46
2022/08/14 12:46:19;;;;;;;8.90;8.30;;;;;;;;;;5087623;28;24719;-46
2022/08/14 12:48:46;;;;;;;8.68;7.97;;;;;;;;;;5089528;28;24513;-47
2022/08/14 12:51:16;;;;;;;9.27;8.57;;;;;;;;;;5089728;28;24394;-46
2022/08/14 12:53:42;;;;;;;8.77;8.17;;;;;;;;;;5089368;28;25004;-46
2022/08/14 12:56:08;;;;;;;9.02;8.23;;;;;;;;;;5089306;28;24479;-47
2022/08/14 12:58:33;;;;;;;8.50;8.00;;;;;;;;;;5089136;28;24398;-47
2022/08/14 13:00:59;;;;;;;8.40;7.90;;;;;;;;;;5089113;28;24834;-47
2022/08/14 13:03:25;;;;;;;8.90;8.20;;;;;;;;;;5088976;28;24414;-47
2022/08/14 13:05:51;;;;;;;9.40;8.70;;;;;;;;;;5089151;28;25050;-47
2022/08/14 13:08:16;;;;;;;8.60;8.10;;;;;;;;;;5089151;28;24485;-47
2022/08/14 13:10:41;;;;;;;7.90;7.40;;;;;;;;;;5089204;28;24476;-47
2022/08/14 13:13:08;;;;;;;8.30;7.80;;;;;;;;;;5089114;28;24489;-47
2022/08/14 13:15:33;;;;;;;8.80;8.20;;;;;;;;;;5088983;28;24475;-47
2022/08/14 13:18:03;;;;;;;8.87;8.07;;;;;;;;;;5088702;28;24935;-47
2022/08/14 13:20:28;;;;;;;8.50;8.00;;;;;;;;;;5089422;28;24442;-47
2022/08/14 13:22:54;;;;;;;9.30;8.50;;;;;;;;;;5088769;28;24429;-48
2022/08/14 13:25:20;;;;;;;9.20;8.60;;;;;;;;;;5088708;28;24390;-48
2022/08/14 13:27:50;;;;;;;8.85;8.25;;;;;;;;;;5088650;28;24386;-47
2022/08/14 13:30:19;;;;;;;7.97;7.40;;;;;;;;;;5088529;28;24451;-47
2022/08/14 13:32:44;;;;;;;8.80;8.20;;;;;;;;;;5088562;28;24435;-46
2022/08/14 13:35:10;;;;;;;8.80;8.30;;;;;;;;;;5088518;28;24558;-47
2022/08/14 13:37:36;;;;;;;8.40;7.80;;;;;;;;;;5088377;28;24495;-46
2022/08/14 13:40:02;;;;;;;8.48;7.88;;;;;;;;;;5087738;28;24425;-48
2022/08/14 13:42:27;;;;;;;9.27;8.57;;;;;;;;;;5088057;28;24394;-46
2022/08/14 13:44:53;;;;;;;9.33;8.73;;;;;;;;;;5086472;28;24920;-46
2022/08/14 13:47:19;;;;;;;9.80;9.10;;;;;;;;;;5088323;28;24430;-48
2022/08/14 13:49:45;;;;;;;8.60;8.10;;;;;;;;;;5088595;28;25159;-46
2022/08/14 13:52:10;;;;;;;9.52;8.93;;;;;;;;;;5087991;28;24787;-47
2022/08/14 13:54:37;;;;;;;9.37;8.70;;;;;;;;;;5088273;28;24423;-47
2022/08/14 13:57:03;;;;;;;9.60;9.00;;;;;;;;;;5087897;28;24406;-47
2022/08/14 13:59:28;;;;;;;9.50;8.80;;;;;;;;;;5088285;28;24435;-47
2022/08/14 14:02:02;;;;;;;9.23;8.53;;;;;;;;;;5088076;28;25015;-48
2022/08/14 14:04:29;;;;;;;8.82;8.27;;;;;;;;;;5088118;28;24831;-47
2022/08/14 14:06:54;;;;;;;8.95;8.35;;;;;;;;;;5086105;28;24464;-46
2022/08/14 14:09:27;;;;;;;9.80;9.10;;;;;;;;;;5088164;28;24403;-47
2022/08/14 14:11:53;;;;;;;8.68;8.07;;;;;;;;;;5087764;28;24526;-46
2022/08/14 14:14:19;;;;;;;9.10;8.40;;;;;;;;;;5087868;28;24433;-46
2022/08/14 14:16:45;;;;;;;8.90;8.30;;;;;;;;;;5088099;28;24951;-47
2022/08/14 14:19:11;;;;;;;9.63;8.93;;;;;;;;;;5087710;28;24402;-47
2022/08/14 14:21:37;;;;;;;8.70;8.10;;;;;;;;;;5087544;28;24421;-46
2022/08/14 14:24:03;;;;;;;9.88;9.10;;;;;;;;;;5085697;28;24464;-47
2022/08/14 14:26:29;;;;;;;10.50;9.60;;;;;;;;;;5087981;28;24417;-48
2022/08/14 14:28:54;;;;;;;11.30;10.40;;;;;;;;;;5087353;28;24828;-47
2022/08/14 14:31:24;;;;;;;11.70;10.70;;;;;;;;;;5087546;28;24387;-46
2022/08/14 14:33:50;;;;;;;11.20;10.40;;;;;;;;;;5087307;28;24405;-48
2022/08/14 14:36:25;;;;;;;11.05;10.25;;;;;;;;;;5087345;28;24437;-47
2022/08/14 14:38:52;;;;;;;10.13;9.43;;;;;;;;;;5087457;28;24406;-46